Time;durP1;ratioP1;P1;durP2;ratioP2;P2;SDS_P1;SDS_P2;PMS_P1;PMS_P2;Temp;Humidity;BMP_temperature;BMP_pressure;BME280_temperature;BME280_humidity;BME280_pressure;Samples;Min_cycle;Max_cycle;Signal;HPM_P1;HPM_P2
2022/09/15 00:00:10;;;;;;;12.93;10.27;;;14.90;99.90;;;;;;5080030;28;20456;-80
2022/09/15 00:02:37;;;;;;;13.57;10.40;;;14.90;99.90;;;;;;5079558;28;20461;-79
2022/09/15 00:05:05;;;;;;;14.67;9.87;;;14.90;99.90;;;;;;5078890;28;20475;-79
2022/09/15 00:07:32;;;;;;;11.63;9.90;;;14.90;99.90;;;;;;5078222;28;20551;-79
2022/09/15 00:09:58;;;;;;;15.33;10.67;;;14.90;99.90;;;;;;5077862;28;20449;-81
2022/09/15 00:12:26;;;;;;;13.17;11.10;;;14.90;99.90;;;;;;5078197;28;20838;-79
2022/09/15 00:14:55;;;;;;;16.30;11.17;;;14.80;99.90;;;;;;5078168;28;20488;-80
2022/09/15 00:17:21;;;;;;;12.43;10.57;;;14.80;99.90;;;;;;5079333;28;20458;-79
2022/09/15 00:19:48;;;;;;;17.53;12.17;;;14.80;99.90;;;;;;5078710;28;20969;-79
2022/09/15 00:22:15;;;;;;;10.97;9.53;;;14.80;99.90;;;;;;5078366;28;20553;-80
2022/09/15 00:24:42;;;;;;;11.97;10.00;;;14.80;99.90;;;;;;5077852;28;20478;-79
2022/09/15 00:27:09;;;;;;;11.80;10.27;;;14.80;99.90;;;;;;5078747;28;20450;-79
2022/09/15 00:29:36;;;;;;;14.00;11.83;;;14.70;99.90;;;;;;5077563;28;20455;-81
2022/09/15 00:32:05;;;;;;;12.40;11.00;;;14.70;99.90;;;;;;5079120;28;20493;-80
2022/09/15 00:34:31;;;;;;;12.20;10.53;;;14.60;99.90;;;;;;5078045;28;20510;-79
2022/09/15 00:36:58;;;;;;;12.10;10.80;;;14.60;99.90;;;;;;5078626;28;20520;-80
2022/09/15 00:39:25;;;;;;;15.43;10.97;;;14.60;99.90;;;;;;5078524;28;20459;-79
2022/09/15 00:41:52;;;;;;;14.80;10.87;;;14.60;99.90;;;;;;5078985;28;20945;-79
2022/09/15 00:44:49;;;;;;;14.03;10.90;;;14.50;99.90;;;;;;5079711;28;20481;-80
2022/09/15 00:47:19;;;;;;;13.43;10.57;;;14.50;99.90;;;;;;5077615;28;20832;-79
2022/09/15 00:49:48;;;;;;;12.97;9.80;;;14.50;99.90;;;;;;5081317;28;20479;-80
2022/09/15 00:52:19;;;;;;;12.93;10.27;;;14.50;99.90;;;;;;5076585;28;20447;-79
2022/09/15 00:54:50;;;;;;;15.17;11.63;;;14.50;99.90;;;;;;5055425;28;20524;-80
2022/09/15 00:57:27;;;;;;;16.47;11.37;;;14.40;99.90;;;;;;5056282;28;20880;-79
2022/09/15 00:59:56;;;;;;;13.33;9.33;;;14.40;99.90;;;;;;5060951;28;20449;-79
2022/09/15 01:02:28;;;;;;;13.50;11.63;;;14.30;99.90;;;;;;5076550;28;20454;-79
2022/09/15 01:04:56;;;;;;;12.53;10.90;;;14.30;99.90;;;;;;5075420;28;20480;-79
2022/09/15 01:07:26;;;;;;;11.80;9.70;;;14.20;99.90;;;;;;5076613;28;20462;-79
2022/09/15 01:09:57;;;;;;;11.63;9.97;;;14.20;99.90;;;;;;5077318;28;20980;-79
2022/09/15 01:12:25;;;;;;;11.40;10.20;;;14.20;99.90;;;;;;5077517;28;20806;-80
2022/09/15 01:14:51;;;;;;;13.33;10.17;;;14.10;99.90;;;;;;5076689;28;20495;-79
2022/09/15 01:17:29;;;;;;;13.33;11.53;;;14.10;99.90;;;;;;5078178;28;20483;-80
2022/09/15 01:20:42;;;;;;;12.83;10.30;;;14.10;99.90;;;;;;5078416;28;20469;-78
2022/09/15 01:23:36;;;;;;;12.67;9.90;;;14.10;99.90;;;;;;5077200;28;20455;-79
2022/09/15 01:26:45;;;;;;;11.33;9.80;;;14.10;99.90;;;;;;5078134;28;20525;-79
2022/09/15 01:29:58;;;;;;;13.60;10.97;;;14.00;99.90;;;;;;5078337;28;20452;-79
2022/09/15 01:35:26;;;;;;;12.47;9.87;;;14.00;99.90;;;;;;5075673;28;20488;-79
2022/09/15 01:38:05;;;;;;;12.80;10.20;;;14.00;99.90;;;;;;5083037;28;20458;-79
2022/09/15 01:40:36;;;;;;;12.73;10.60;;;14.00;99.90;;;;;;5082558;28;20822;-79
2022/09/15 01:43:06;;;;;;;15.63;9.67;;;14.00;99.90;;;;;;5071715;28;20463;-79
2022/09/15 01:45:38;;;;;;;11.80;9.83;;;13.90;99.90;;;;;;5072089;28;20454;-80
2022/09/15 01:48:09;;;;;;;12.60;9.20;;;13.90;99.90;;;;;;5081293;28;20450;-79
2022/09/15 01:50:40;;;;;;;13.60;10.50;;;13.90;99.90;;;;;;5081361;28;20444;-79
2022/09/15 01:53:12;;;;;;;11.60;9.30;;;14.00;99.90;;;;;;5078518;28;20449;-79
2022/09/15 01:55:42;;;;;;;13.37;9.13;;;13.90;99.90;;;;;;5080800;28;20541;-80
2022/09/15 01:58:09;;;;;;;15.80;9.77;;;13.90;99.90;;;;;;5082601;28;20526;-80
2022/09/15 02:00:41;;;;;;;14.77;10.33;;;13.90;99.90;;;;;;5080448;28;20828;-79
2022/09/15 02:03:16;;;;;;;13.77;10.40;;;13.90;99.90;;;;;;5077150;28;20450;-79
2022/09/15 02:05:47;;;;;;;12.20;9.70;;;13.90;99.90;;;;;;5077825;28;20839;-80
2022/09/15 02:08:23;;;;;;;11.83;9.97;;;13.90;99.90;;;;;;5059261;28;21015;-79
2022/09/15 02:11:00;;;;;;;12.90;9.70;;;13.90;99.90;;;;;;5058860;28;20459;-79
2022/09/15 02:13:36;;;;;;;11.97;9.40;;;13.80;99.90;;;;;;5070987;28;20541;-79
2022/09/15 02:16:03;;;;;;;13.83;10.87;;;13.70;99.90;;;;;;5078255;28;20482;-79
2022/09/15 02:18:42;;;;;;;11.50;9.57;;;13.70;99.90;;;;;;5077847;28;20879;-81
2022/09/15 02:21:13;;;;;;;17.67;10.97;;;13.80;99.90;;;;;;5078761;28;20904;-82
2022/09/15 02:23:43;;;;;;;13.07;10.43;;;13.80;99.90;;;;;;5078609;28;20480;-81
2022/09/15 02:26:15;;;;;;;13.40;9.20;;;13.80;99.90;;;;;;5079664;28;20474;-81
2022/09/15 02:28:44;;;;;;;12.90;9.87;;;13.80;99.90;;;;;;5079658;28;20444;-82
2022/09/15 02:31:15;;;;;;;15.50;11.43;;;13.80;99.90;;;;;;5078190;28;20443;-81
2022/09/15 02:33:47;;;;;;;14.00;10.47;;;13.80;99.90;;;;;;5077909;28;20469;-81
2022/09/15 02:36:18;;;;;;;12.40;10.10;;;13.80;99.90;;;;;;5078832;28;20457;-82
2022/09/15 02:38:49;;;;;;;12.80;10.10;;;13.80;99.90;;;;;;5076976;28;20457;-82
2022/09/15 02:41:17;;;;;;;14.07;11.00;;;13.80;99.90;;;;;;5075870;28;20502;-81
2022/09/15 02:43:48;;;;;;;12.47;9.93;;;13.80;99.90;;;;;;5074866;28;20989;-79
2022/09/15 02:46:16;;;;;;;12.70;9.83;;;13.80;99.90;;;;;;5076149;28;20455;-79
2022/09/15 02:48:44;;;;;;;15.00;11.40;;;13.80;99.90;;;;;;5076392;28;20447;-79
2022/09/15 02:51:11;;;;;;;13.67;10.20;;;13.80;99.90;;;;;;5077010;28;20453;-79
2022/09/15 02:53:37;;;;;;;12.53;9.50;;;13.80;99.90;;;;;;5075742;28;20479;-80
2022/09/15 02:56:05;;;;;;;14.20;10.23;;;13.80;99.90;;;;;;5076612;28;20935;-80
2022/09/15 02:58:32;;;;;;;11.83;9.37;;;13.90;99.90;;;;;;5075182;28;21019;-79
2022/09/15 03:01:01;;;;;;;14.07;11.43;;;13.80;99.90;;;;;;5075998;28;20457;-79
2022/09/15 03:03:28;;;;;;;14.90;10.47;;;13.90;99.90;;;;;;5075918;28;20478;-80
2022/09/15 03:06:15;;;;;;;14.63;10.80;;;13.90;99.90;;;;;;5076535;28;20442;-80
2022/09/15 03:08:42;;;;;;;13.57;10.57;;;13.90;99.90;;;;;;5078130;28;20439;-80
2022/09/15 03:11:11;;;;;;;13.47;10.90;;;13.90;99.90;;;;;;5077679;28;20445;-79
2022/09/15 03:13:38;;;;;;;14.17;10.40;;;13.90;99.90;;;;;;5073718;28;20472;-79
2022/09/15 03:16:08;;;;;;;14.63;11.70;;;14.00;99.90;;;;;;5077765;28;20449;-79
2022/09/15 03:18:35;;;;;;;15.80;10.87;;;14.00;99.90;;;;;;5076727;28;20547;-79
2022/09/15 03:21:04;;;;;;;14.30;11.53;;;14.00;99.90;;;;;;5079663;28;20505;-79
2022/09/15 03:23:31;;;;;;;14.67;10.50;;;14.10;99.90;;;;;;5079389;28;20479;-79
2022/09/15 03:25:58;;;;;;;17.40;12.97;;;14.10;99.90;;;;;;5079177;28;20657;-79
2022/09/15 03:28:25;;;;;;;14.30;10.87;;;14.10;99.90;;;;;;5080019;28;20451;-79
2022/09/15 03:30:53;;;;;;;16.00;11.53;;;14.10;99.90;;;;;;5079022;28;20458;-82
2022/09/15 03:33:20;;;;;;;17.67;12.03;;;14.10;99.90;;;;;;5079273;28;20538;-80
2022/09/15 03:35:48;;;;;;;15.47;12.43;;;14.10;99.90;;;;;;5078736;28;20483;-81
2022/09/15 03:38:17;;;;;;;16.13;12.03;;;14.10;99.90;;;;;;5079285;28;20489;-78
2022/09/15 03:40:44;;;;;;;17.00;11.57;;;14.20;99.90;;;;;;5072520;28;20455;-81
2022/09/15 03:43:12;;;;;;;18.30;12.30;;;14.20;99.90;;;;;;5064794;28;20443;-79
2022/09/15 03:45:39;;;;;;;15.87;12.77;;;14.30;99.90;;;;;;5068413;28;20489;-79
2022/09/15 03:48:06;;;;;;;17.80;12.27;;;14.30;99.90;;;;;;5077786;28;20458;-81
2022/09/15 03:50:34;;;;;;;19.30;14.43;;;14.40;99.90;;;;;;5077942;28;20467;-83
2022/09/15 03:53:01;;;;;;;18.60;12.47;;;14.40;99.90;;;;;;5075130;28;20448;-80
2022/09/15 03:55:29;;;;;;;20.53;12.50;;;14.40;99.90;;;;;;5067111;28;20490;-81
2022/09/15 03:57:56;;;;;;;20.47;15.13;;;14.40;99.90;;;;;;5066010;28;20451;-81
2022/09/15 04:00:23;;;;;;;19.17;14.57;;;14.50;99.90;;;;;;5073836;28;20450;-82
2022/09/15 04:02:50;;;;;;;22.63;15.67;;;14.50;99.90;;;;;;5075290;28;20446;-79
2022/09/15 04:05:17;;;;;;;23.07;15.70;;;14.50;99.90;;;;;;5066336;28;20553;-79
2022/09/15 04:07:44;;;;;;;18.33;14.63;;;14.60;99.90;;;;;;5054777;28;20439;-79
2022/09/15 04:10:11;;;;;;;16.87;14.67;;;14.60;99.90;;;;;;5066976;28;20481;-79
2022/09/15 04:12:39;;;;;;;16.13;12.83;;;14.60;99.90;;;;;;5072771;28;20470;-85
2022/09/15 04:15:07;;;;;;;17.83;13.50;;;14.60;99.90;;;;;;5067664;28;20491;-80
2022/09/15 04:17:34;;;;;;;18.73;14.50;;;14.60;99.90;;;;;;5068004;28;20493;-82
2022/09/15 04:20:00;;;;;;;20.37;14.63;;;14.60;99.90;;;;;;5069838;28;20458;-83
2022/09/15 04:22:30;;;;;;;18.60;14.60;;;14.60;99.90;;;;;;5074402;28;20455;-82
2022/09/15 04:24:57;;;;;;;17.60;13.90;;;14.60;99.90;;;;;;5071737;28;20521;-82
2022/09/15 04:27:24;;;;;;;19.93;13.17;;;14.70;99.90;;;;;;5078488;28;20450;-84
2022/09/15 04:29:53;;;;;;;20.73;13.10;;;14.70;99.90;;;;;;5075984;28;20489;-82
2022/09/15 04:32:20;;;;;;;24.40;14.70;;;14.70;99.90;;;;;;5077749;28;20446;-82
2022/09/15 04:34:47;;;;;;;21.60;14.17;;;14.70;99.90;;;;;;5075010;28;20491;-82
2022/09/15 04:37:14;;;;;;;20.20;12.90;;;14.70;99.90;;;;;;5076950;28;20527;-83
2022/09/15 04:39:41;;;;;;;17.37;13.07;;;14.70;99.90;;;;;;5076945;28;20461;-83
2022/09/15 04:42:08;;;;;;;15.23;12.80;;;14.70;99.90;;;;;;5088746;22;21024;-79
2022/09/15 04:44:35;;;;;;;20.10;14.60;;;14.70;99.90;;;;;;5056274;28;20461;-81
2022/09/15 04:47:03;;;;;;;17.80;13.93;;;14.80;99.90;;;;;;5075128;28;20451;-81
2022/09/15 04:49:30;;;;;;;19.40;12.57;;;14.80;99.90;;;;;;5071692;28;20460;-78
2022/09/15 04:51:57;;;;;;;16.47;12.63;;;14.80;99.90;;;;;;5089987;28;20496;-79
2022/09/15 04:54:24;;;;;;;19.93;14.20;;;14.80;99.90;;;;;;5087364;28;21014;-81
2022/09/15 04:56:51;;;;;;;17.33;12.30;;;14.80;99.90;;;;;;5069810;28;20545;-80
2022/09/15 04:59:18;;;;;;;18.00;13.10;;;14.80;99.90;;;;;;5069522;28;20462;-80
2022/09/15 05:01:46;;;;;;;18.27;13.10;;;14.80;99.90;;;;;;5086728;28;20497;-79
2022/09/15 05:04:14;;;;;;;20.53;13.13;;;14.80;99.90;;;;;;5088047;28;20446;-79
2022/09/15 05:06:41;;;;;;;22.90;14.07;;;14.80;99.90;;;;;;5070438;28;20519;-80
2022/09/15 05:09:08;;;;;;;22.23;12.93;;;14.80;99.90;;;;;;5069231;28;20521;-79
2022/09/15 05:11:35;;;;;;;17.53;13.30;;;14.80;99.90;;;;;;5081482;28;20481;-80
2022/09/15 05:14:02;;;;;;;19.60;13.37;;;14.80;99.90;;;;;;5068143;28;20524;-79
2022/09/15 05:16:30;;;;;;;19.10;13.47;;;14.90;99.90;;;;;;5068666;28;20487;-81
2022/09/15 05:18:59;;;;;;;17.87;13.50;;;14.80;99.90;;;;;;5069333;28;20503;-79
2022/09/15 05:21:28;;;;;;;17.73;13.40;;;14.90;99.90;;;;;;5069062;28;20489;-79
2022/09/15 05:23:55;;;;;;;23.57;15.90;;;14.90;99.90;;;;;;5068305;28;20540;-80
2022/09/15 05:26:25;;;;;;;15.20;12.40;;;14.90;99.90;;;;;;5069590;28;20445;-80
2022/09/15 05:28:52;;;;;;;20.67;12.87;;;14.90;99.90;;;;;;5069085;28;20461;-80
2022/09/15 05:31:23;;;;;;;20.07;13.40;;;15.00;99.90;;;;;;5069230;28;20471;-78
2022/09/15 05:33:51;;;;;;;22.43;14.60;;;14.90;99.90;;;;;;5076658;28;20478;-80
2022/09/15 05:36:20;;;;;;;19.97;14.87;;;14.90;99.90;;;;;;5077482;28;20582;-81
2022/09/15 05:38:48;;;;;;;17.57;13.30;;;15.00;99.90;;;;;;5069596;28;20459;-80
2022/09/15 05:41:16;;;;;;;21.10;13.67;;;14.90;99.90;;;;;;5084271;28;20521;-80
2022/09/15 05:43:44;;;;;;;18.10;13.50;;;15.00;99.90;;;;;;5068664;28;20485;-78
2022/09/15 05:46:11;;;;;;;18.93;14.40;;;15.00;99.90;;;;;;5087691;28;20453;-80
2022/09/15 05:48:38;;;;;;;19.23;14.43;;;15.00;99.90;;;;;;5071907;28;20466;-81
2022/09/15 05:51:05;;;;;;;27.80;19.03;;;15.00;99.90;;;;;;5064264;28;20483;-79
2022/09/15 05:53:34;;;;;;;23.63;18.03;;;15.00;99.90;;;;;;5071689;28;20455;-79
2022/09/15 05:56:05;;;;;;;22.80;17.20;;;15.00;99.90;;;;;;5060506;28;20491;-79
2022/09/15 05:58:32;;;;;;;23.80;19.30;;;14.90;99.90;;;;;;5074902;28;20458;-79
2022/09/15 06:01:05;;;;;;;28.57;19.87;;;15.00;99.90;;;;;;5079618;28;20484;-79
2022/09/15 06:03:32;;;;;;;27.60;21.60;;;15.00;99.90;;;;;;5061905;28;20455;-78
2022/09/15 06:05:59;;;;;;;26.80;20.27;;;15.00;99.90;;;;;;5062132;28;20813;-79
2022/09/15 06:08:29;;;;;;;27.40;19.93;;;15.10;99.90;;;;;;5073604;28;20453;-78
2022/09/15 06:11:03;;;;;;;26.10;20.80;;;15.10;99.90;;;;;;5075481;28;20550;-79
2022/09/15 06:13:30;;;;;;;21.70;17.57;;;15.20;99.90;;;;;;5074994;28;20517;-79
2022/09/15 06:16:01;;;;;;;26.77;18.90;;;15.20;99.90;;;;;;5080126;28;20560;-81
2022/09/15 06:18:27;;;;;;;29.37;20.23;;;15.20;99.90;;;;;;5071869;28;20441;-80
2022/09/15 06:20:54;;;;;;;21.67;16.37;;;15.20;99.90;;;;;;5080140;28;20481;-79
2022/09/15 06:23:21;;;;;;;31.93;21.93;;;15.30;99.90;;;;;;5074298;28;20546;-78
2022/09/15 06:25:48;;;;;;;24.93;15.80;;;15.20;99.90;;;;;;5066541;28;20451;-79
2022/09/15 06:28:16;;;;;;;24.33;16.67;;;15.30;99.90;;;;;;5055250;28;20459;-77
2022/09/15 06:30:47;;;;;;;23.90;15.77;;;15.20;99.90;;;;;;5052872;28;20471;-79
2022/09/15 06:33:14;;;;;;;20.43;16.57;;;15.30;99.90;;;;;;5049461;28;20460;-78
2022/09/15 06:35:41;;;;;;;26.23;16.10;;;15.30;99.90;;;;;;5054896;28;20511;-79
2022/09/15 06:38:08;;;;;;;26.67;18.60;;;15.30;99.90;;;;;;5056344;28;20460;-80
2022/09/15 06:40:35;;;;;;;22.10;16.70;;;15.30;99.90;;;;;;5074241;28;20461;-77
2022/09/15 06:43:01;;;;;;;21.87;15.27;;;15.40;99.90;;;;;;5073786;28;20454;-78
2022/09/15 06:45:31;;;;;;;25.00;15.20;;;15.50;99.90;;;;;;5053559;28;20547;-79
2022/09/15 06:47:58;;;;;;;26.47;17.87;;;15.40;99.90;;;;;;5053406;28;20451;-77
2022/09/15 06:50:25;;;;;;;30.93;22.73;;;15.50;99.90;;;;;;5069693;28;20967;-76
2022/09/15 06:52:52;;;;;;;20.20;15.80;;;15.40;99.90;;;;;;5063135;28;20497;-82
2022/09/15 06:55:19;;;;;;;26.50;17.30;;;15.50;99.90;;;;;;5052914;28;20485;-79
2022/09/15 06:57:46;;;;;;;21.73;18.30;;;15.40;99.90;;;;;;5060888;28;20467;-78
2022/09/15 07:00:13;;;;;;;20.10;14.53;;;15.50;99.90;;;;;;5072542;28;20457;-79
2022/09/15 07:02:41;;;;;;;26.17;18.67;;;15.60;99.90;;;;;;5056904;28;20475;-79
2022/09/15 07:05:17;;;;;;;19.00;15.20;;;15.50;99.90;;;;;;5052304;28;21041;-78
2022/09/15 07:07:43;;;;;;;20.70;16.10;;;15.60;99.90;;;;;;5052916;28;20457;-78
2022/09/15 07:10:10;;;;;;;20.40;15.37;;;15.60;99.90;;;;;;5053008;28;20467;-77
2022/09/15 07:12:37;;;;;;;23.33;16.03;;;15.60;99.90;;;;;;5064557;28;20480;-80
2022/09/15 07:15:05;;;;;;;26.13;16.90;;;15.60;99.90;;;;;;5067506;28;20452;-79
2022/09/15 07:17:36;;;;;;;24.97;17.07;;;15.60;99.90;;;;;;5054261;28;20945;-79
2022/09/15 07:20:05;;;;;;;21.47;18.13;;;15.70;99.90;;;;;;5055721;28;20567;-79
2022/09/15 07:22:32;;;;;;;21.60;17.70;;;15.70;99.90;;;;;;5074099;28;20485;-79
2022/09/15 07:24:58;;;;;;;24.87;17.77;;;15.60;99.90;;;;;;5069189;28;20550;-78
2022/09/15 07:27:30;;;;;;;30.47;18.87;;;15.60;99.90;;;;;;5053621;28;20869;-77
2022/09/15 07:29:57;;;;;;;20.23;15.00;;;15.70;99.90;;;;;;5056804;28;20991;-77
2022/09/15 07:32:24;;;;;;;20.27;15.17;;;15.60;99.90;;;;;;5073881;28;20467;-78
2022/09/15 07:34:51;;;;;;;27.53;18.73;;;15.60;99.90;;;;;;5072086;28;20504;-78
2022/09/15 07:37:19;;;;;;;19.07;14.40;;;15.70;99.90;;;;;;5073939;28;20519;-77
2022/09/15 07:39:46;;;;;;;23.20;15.87;;;15.80;99.90;;;;;;5072963;28;20461;-78
2022/09/15 07:42:12;;;;;;;19.70;14.20;;;15.70;99.90;;;;;;5052493;28;20490;-78
2022/09/15 07:44:39;;;;;;;21.23;14.20;;;15.80;99.90;;;;;;5050294;28;20954;-78
2022/09/15 07:47:06;;;;;;;18.37;14.30;;;15.90;99.90;;;;;;5070160;28;20954;-77
2022/09/15 07:49:33;;;;;;;20.77;14.57;;;16.00;99.90;;;;;;5059703;28;20462;-79
2022/09/15 07:52:00;;;;;;;18.27;12.33;;;16.00;99.90;;;;;;5051548;28;20478;-78
2022/09/15 07:54:28;;;;;;;18.50;13.20;;;16.00;99.90;;;;;;5055218;28;20455;-80
2022/09/15 07:56:55;;;;;;;15.93;10.93;;;16.10;99.90;;;;;;5054898;28;20492;-80
2022/09/15 07:59:21;;;;;;;16.57;10.27;;;16.10;99.90;;;;;;5053347;28;20972;-79
2022/09/15 08:01:49;;;;;;;19.53;10.97;;;16.20;99.90;;;;;;5050795;28;20854;-79
2022/09/15 08:04:16;;;;;;;17.13;10.10;;;16.20;99.90;;;;;;5049845;28;20839;-79
2022/09/15 08:06:43;;;;;;;20.53;11.00;;;16.20;99.90;;;;;;5050266;28;20448;-80
2022/09/15 08:09:13;;;;;;;13.17;7.50;;;16.30;99.90;;;;;;5049500;28;20452;-77
2022/09/15 08:11:41;;;;;;;19.13;8.20;;;16.20;99.90;;;;;;5051736;28;20557;-78
2022/09/15 08:14:08;;;;;;;13.10;7.57;;;16.20;99.90;;;;;;5050244;28;20512;-78
2022/09/15 08:16:36;;;;;;;11.47;8.30;;;16.30;99.90;;;;;;5048897;28;20477;-78
2022/09/15 08:19:03;;;;;;;17.53;8.60;;;16.30;99.90;;;;;;5045215;28;20569;-78
2022/09/15 08:21:30;;;;;;;12.67;9.90;;;16.30;99.90;;;;;;5048908;28;20472;-79
2022/09/15 08:23:58;;;;;;;12.30;8.67;;;16.30;99.90;;;;;;5048248;28;20446;-78
2022/09/15 08:26:25;;;;;;;13.70;6.67;;;16.30;99.90;;;;;;5051080;28;20446;-79
2022/09/15 08:28:54;;;;;;;14.23;8.40;;;16.30;99.90;;;;;;5046634;28;20904;-77
2022/09/15 08:31:22;;;;;;;17.77;8.17;;;16.20;99.90;;;;;;5048943;28;20980;-78
2022/09/15 08:33:50;;;;;;;10.43;6.00;;;16.30;99.90;;;;;;5050389;28;20463;-77
2022/09/15 08:36:17;;;;;;;13.03;6.83;;;16.50;99.90;;;;;;5050883;28;20994;-78
2022/09/15 08:38:45;;;;;;;10.07;5.83;;;16.50;99.90;;;;;;5050833;28;20539;-78
2022/09/15 08:41:16;;;;;;;9.10;5.43;;;16.50;99.90;;;;;;5050816;28;20872;-78
2022/09/15 08:43:47;;;;;;;8.33;5.33;;;16.70;99.90;;;;;;5062790;28;20454;-77
2022/09/15 08:46:21;;;;;;;11.13;4.50;;;16.90;99.90;;;;;;5051858;28;20465;-78
2022/09/15 08:48:52;;;;;;;6.60;4.50;;;16.90;99.90;;;;;;5071540;28;20456;-77
2022/09/15 08:51:25;;;;;;;7.90;4.30;;;16.80;99.90;;;;;;5072165;28;20478;-79
2022/09/15 08:53:58;;;;;;;4.87;3.20;;;16.80;99.90;;;;;;5070439;28;20490;-78
2022/09/15 08:56:28;;;;;;;6.60;3.57;;;16.90;99.90;;;;;;5071243;28;20486;-78
2022/09/15 08:58:55;;;;;;;8.37;4.90;;;16.90;99.90;;;;;;5052159;28;20454;-78
2022/09/15 09:01:36;;;;;;;7.10;4.10;;;16.90;99.90;;;;;;5051843;28;20481;-78
2022/09/15 09:04:20;;;;;;;13.03;5.17;;;17.00;99.90;;;;;;5051500;28;20452;-78
2022/09/15 09:06:56;;;;;;;8.63;4.60;;;17.10;99.90;;;;;;5036086;28;20433;-78
2022/09/15 09:09:33;;;;;;;10.50;5.83;;;17.10;99.90;;;;;;5035097;28;20961;-79
2022/09/15 09:12:13;;;;;;;8.10;5.17;;;17.20;99.90;;;;;;5034933;28;20479;-78
2022/09/15 09:14:56;;;;;;;10.50;6.00;;;17.40;99.90;;;;;;5036770;28;20452;-78
2022/09/15 09:17:38;;;;;;;8.70;5.23;;;17.40;99.90;;;;;;5075004;28;21024;-79
2022/09/15 09:20:30;;;;;;;8.70;4.17;;;17.30;99.90;;;;;;5070942;28;20472;-79
2022/09/15 09:23:01;;;;;;;4.33;3.60;;;17.50;99.90;;;;;;5054197;28;20511;-79
2022/09/15 09:25:28;;;;;;;11.70;4.27;;;17.30;99.90;;;;;;5057762;28;20455;-78
2022/09/15 09:27:57;;;;;;;7.63;3.83;;;17.40;99.90;;;;;;5058000;28;20449;-79
2022/09/15 09:30:27;;;;;;;7.60;3.93;;;17.50;99.90;;;;;;5054241;28;20451;-77
2022/09/15 09:33:12;;;;;;;4.20;3.23;;;17.70;99.90;;;;;;5054340;28;20973;-78
2022/09/15 09:35:44;;;;;;;8.00;2.83;;;17.90;99.90;;;;;;5059702;28;20540;-78
2022/09/15 09:38:12;;;;;;;3.83;1.67;;;18.20;99.90;;;;;;5075510;28;20453;-77
2022/09/15 09:40:40;;;;;;;7.30;1.47;;;18.40;99.90;;;;;;5070401;28;20454;-77
2022/09/15 09:43:07;;;;;;;5.70;2.00;;;18.40;99.90;;;;;;5055427;28;20537;-78
2022/09/15 09:45:34;;;;;;;8.13;1.63;;;18.50;99.90;;;;;;5059500;28;20834;-76
2022/09/15 09:48:11;;;;;;;7.43;2.10;;;18.40;99.90;;;;;;5074484;28;20528;-77
2022/09/15 09:50:41;;;;;;;6.90;1.60;;;18.20;99.90;;;;;;5069328;28;20449;-78
2022/09/15 09:53:27;;;;;;;3.60;1.47;;;18.20;99.90;;;;;;5053910;28;20523;-78
2022/09/15 09:55:55;;;;;;;7.00;1.90;;;18.10;99.90;;;;;;5057718;28;20449;-78
2022/09/15 09:58:24;;;;;;;5.83;1.63;;;18.00;99.90;;;;;;5054374;28;20815;-78
2022/09/15 10:00:53;;;;;;;6.27;1.77;;;18.00;99.90;;;;;;5063653;28;20480;-77
2022/09/15 10:03:23;;;;;;;5.27;1.70;;;18.00;99.90;;;;;;5069554;28;20577;-77
2022/09/15 10:06:12;;;;;;;6.80;1.93;;;17.80;99.90;;;;;;5054946;28;20451;-77
2022/09/15 10:08:53;;;;;;;4.60;1.20;;;17.90;99.90;;;;;;5055728;28;20464;-78
2022/09/15 10:11:21;;;;;;;8.03;1.30;;;18.00;99.90;;;;;;5073226;28;20524;-78
2022/09/15 10:13:53;;;;;;;5.10;1.33;;;18.00;99.90;;;;;;5063357;28;20454;-78
2022/09/15 10:16:21;;;;;;;4.63;1.60;;;18.00;99.90;;;;;;5052787;28;20486;-78
2022/09/15 10:18:49;;;;;;;7.23;1.80;;;18.10;99.90;;;;;;5058741;28;20457;-78
2022/09/15 10:21:22;;;;;;;5.40;2.03;;;18.00;99.90;;;;;;5074405;28;20475;-78
2022/09/15 10:23:49;;;;;;;4.93;2.30;;;18.10;99.90;;;;;;5067907;28;20844;-79
2022/09/15 10:26:21;;;;;;;4.43;1.47;;;18.00;99.90;;;;;;5053617;28;20455;-78
2022/09/15 10:29:10;;;;;;;3.80;1.40;;;18.00;99.90;;;;;;5057740;28;20450;-78
2022/09/15 10:31:36;;;;;;;6.50;1.60;;;17.80;99.90;;;;;;5071857;28;20472;-77
2022/09/15 10:34:25;;;;;;;2.60;1.30;;;17.70;99.90;;;;;;5072926;28;20469;-78
2022/09/15 10:36:54;;;;;;;4.47;1.50;;;17.60;99.90;;;;;;5073595;28;20496;-79
2022/09/15 10:39:31;;;;;;;3.03;1.47;;;17.50;99.90;;;;;;5071888;28;20451;-78
2022/09/15 10:42:08;;;;;;;4.67;1.50;;;17.40;99.90;;;;;;5073699;28;20475;-77
2022/09/15 10:44:44;;;;;;;4.30;1.70;;;17.30;99.90;;;;;;5054149;28;20463;-77
2022/09/15 10:47:21;;;;;;;7.93;1.70;;;17.10;99.90;;;;;;5053489;28;20443;-76
2022/09/15 10:50:03;;;;;;;3.90;1.40;;;17.10;99.90;;;;;;5053872;28;20442;-79
2022/09/15 10:52:40;;;;;;;5.67;1.80;;;17.00;99.90;;;;;;5053884;28;20893;-76
2022/09/15 10:55:22;;;;;;;5.73;2.27;;;16.80;99.90;;;;;;5052753;28;20444;-77
2022/09/15 10:58:05;;;;;;;4.63;1.60;;;16.60;99.90;;;;;;5053381;28;20473;-76
2022/09/15 11:00:39;;;;;;;7.30;2.30;;;16.30;99.90;;;;;;5053215;28;20836;-77
2022/09/15 11:03:42;;;;;;;6.23;1.97;;;16.30;99.90;;;;;;5078233;22;20493;-79
2022/09/15 11:06:18;;;;;;;5.70;1.73;;;16.20;99.90;;;;;;5060892;28;20461;-79
2022/09/15 11:09:13;;;;;;;7.43;1.90;;;16.10;99.90;;;;;;5053612;28;20473;-80
2022/09/15 11:11:54;;;;;;;10.10;2.20;;;16.00;99.90;;;;;;4965269;28;20460;-78
2022/09/15 11:14:38;;;;;;;2.93;1.50;;;15.90;99.90;;;;;;5058669;28;20983;-79
2022/09/15 11:17:20;;;;;;;7.13;1.90;;;16.00;99.90;;;;;;5060846;28;20796;-79
2022/09/15 11:20:12;;;;;;;3.23;1.53;;;15.90;99.90;;;;;;5058419;28;20465;-80
2022/09/15 11:22:46;;;;;;;5.20;2.00;;;16.00;99.90;;;;;;5059753;28;20472;-79
2022/09/15 11:25:16;;;;;;;5.20;1.93;;;16.10;99.90;;;;;;5055596;28;20456;-79
2022/09/15 11:27:47;;;;;;;5.13;2.50;;;16.20;99.90;;;;;;5057985;28;20458;-79
2022/09/15 11:30:17;;;;;;;5.50;1.73;;;16.20;99.90;;;;;;5060124;28;20456;-78
2022/09/15 11:32:49;;;;;;;6.70;2.03;;;16.30;99.90;;;;;;5059522;28;21022;-80
2022/09/15 11:35:42;;;;;;;6.90;2.33;;;16.40;99.90;;;;;;5057036;28;20546;-79
2022/09/15 11:38:29;;;;;;;4.73;1.77;;;16.40;99.90;;;;;;5058434;28;20482;-79
2022/09/15 11:41:08;;;;;;;4.83;1.40;;;16.40;99.90;;;;;;5056912;28;20495;-79
2022/09/15 11:43:44;;;;;;;12.23;1.90;;;16.50;99.90;;;;;;5058006;28;20546;-79
2022/09/15 11:46:17;;;;;;;2.93;1.30;;;16.50;99.90;;;;;;5056992;28;20450;-79
2022/09/15 11:48:47;;;;;;;5.47;1.10;;;16.50;99.90;;;;;;5058764;28;20441;-78
2022/09/15 11:51:19;;;;;;;6.73;1.47;;;16.50;99.90;;;;;;5057024;28;20448;-78
2022/09/15 11:53:53;;;;;;;12.53;2.63;;;16.70;99.90;;;;;;5037849;28;20558;-79
2022/09/15 11:56:33;;;;;;;5.03;1.40;;;16.50;99.90;;;;;;5055295;28;20458;-79
2022/09/15 11:59:06;;;;;;;7.93;1.30;;;16.80;99.90;;;;;;5052725;28;20455;-79
2022/09/15 12:01:41;;;;;;;8.43;1.60;;;17.00;99.90;;;;;;5055820;28;20474;-79
2022/09/15 12:04:16;;;;;;;4.53;1.87;;;17.40;99.90;;;;;;5056493;28;20512;-79
2022/09/15 12:06:49;;;;;;;7.07;2.20;;;17.60;99.90;;;;;;5058441;28;20484;-79
2022/09/15 12:09:19;;;;;;;4.23;1.60;;;18.00;99.90;;;;;;5057887;28;20534;-79
2022/09/15 12:11:49;;;;;;;7.13;3.17;;;18.40;99.90;;;;;;5059066;28;20479;-79
2022/09/15 12:14:27;;;;;;;6.70;2.30;;;18.60;99.90;;;;;;5055390;28;20488;-79
2022/09/15 12:16:57;;;;;;;5.03;2.03;;;18.70;99.90;;;;;;5055649;28;21023;-79
2022/09/15 12:19:44;;;;;;;6.00;2.33;;;19.00;99.90;;;;;;5039865;28;20462;-78
2022/09/15 12:22:18;;;;;;;6.57;1.83;;;19.00;99.90;;;;;;5058923;28;20930;-79
2022/09/15 12:24:52;;;;;;;5.73;2.23;;;18.90;99.90;;;;;;5058767;28;20461;-80
2022/09/15 12:27:20;;;;;;;5.93;1.93;;;19.00;99.90;;;;;;5059102;28;20785;-79
2022/09/15 12:29:51;;;;;;;6.00;1.90;;;18.90;99.90;;;;;;5058884;28;20465;-79
2022/09/15 12:32:26;;;;;;;4.90;1.67;;;18.80;99.90;;;;;;5054944;28;20452;-79
2022/09/15 12:35:29;;;;;;;5.60;1.43;;;18.70;99.90;;;;;;5057198;28;20502;-78
2022/09/15 12:37:59;;;;;;;7.10;1.60;;;18.50;99.90;;;;;;5032418;28;21041;-80
2022/09/15 12:40:34;;;;;;;4.90;1.70;;;18.40;99.90;;;;;;5050498;28;20516;-79
2022/09/15 12:43:02;;;;;;;3.63;1.70;;;18.30;99.90;;;;;;5060575;28;20549;-79
2022/09/15 12:45:31;;;;;;;6.37;1.60;;;18.20;99.90;;;;;;5061636;28;20458;-79
2022/09/15 12:48:04;;;;;;;4.73;2.07;;;18.30;99.90;;;;;;5048426;28;20450;-79
2022/09/15 12:50:32;;;;;;;9.00;2.37;;;17.90;99.90;;;;;;5046831;28;20453;-78
2022/09/15 12:53:02;;;;;;;3.90;1.60;;;18.00;99.90;;;;;;5039977;28;20485;-78
2022/09/15 12:55:34;;;;;;;5.73;1.50;;;17.80;99.90;;;;;;5048890;28;20449;-79